createdAt,value
2023-04-19T00:01:05.676Z,99.90
2023-04-19T00:04:08.777Z,99.90
2023-04-19T00:07:10.972Z,99.90
2023-04-19T00:10:12.652Z,99.90
2023-04-19T00:13:14.347Z,99.90
2023-04-19T00:16:16.700Z,99.90
2023-04-19T00:19:18.419Z,99.90
2023-04-19T00:22:20.131Z,99.90
2023-04-19T00:25:21.831Z,99.90
2023-04-19T00:28:24.817Z,99.90
2023-04-19T00:31:26.582Z,99.90
2023-04-19T00:34:28.374Z,99.90
2023-04-19T00:41:02.819Z,99.90
2023-04-19T00:44:04.785Z,99.90
2023-04-19T00:47:08.368Z,99.90
2023-04-19T00:50:10.983Z,99.90
2023-04-19T00:53:12.977Z,99.90
2023-04-19T00:56:15.708Z,99.90
2023-04-19T00:59:18.353Z,99.90
2023-04-19T01:02:21.126Z,99.90
2023-04-19T01:05:24.795Z,99.90
2023-04-19T01:08:26.517Z,99.90
2023-04-19T01:11:29.312Z,99.90
2023-04-19T01:14:31.071Z,99.90
2023-04-19T01:17:33.183Z,99.90
2023-04-19T01:27:24.228Z,99.90
2023-04-19T01:30:25.943Z,99.90
2023-04-19T01:33:30.600Z,99.90
2023-04-19T01:36:32.341Z,99.90
2023-04-19T01:39:34.083Z,99.90
2023-04-19T01:42:35.791Z,99.90
2023-04-19T01:45:37.566Z,99.90
2023-04-19T01:48:39.490Z,99.90
2023-04-19T01:51:41.183Z,99.90
2023-04-19T01:54:42.860Z,99.90
2023-04-19T01:57:44.765Z,99.90
2023-04-19T02:00:46.537Z,99.90
2023-04-19T02:03:48.381Z,99.90
2023-04-19T02:07:01.336Z,99.90
2023-04-19T02:13:22.212Z,99.90
2023-04-19T02:16:24.132Z,99.90
2023-04-19T02:19:26.062Z,99.90
2023-04-19T02:22:28.003Z,99.90
2023-04-19T02:25:29.729Z,99.90
2023-04-19T02:28:32.184Z,99.90
2023-04-19T02:31:37.247Z,99.90
2023-04-19T02:34:39.928Z,99.90
2023-04-19T02:37:52.323Z,99.90
2023-04-19T02:40:54.144Z,99.90
2023-04-19T02:43:56.281Z,99.90
2023-04-19T02:46:58.067Z,99.90
2023-04-19T02:50:00.445Z,99.90
2023-04-19T02:53:02.454Z,99.90
2023-04-19T02:56:06.450Z,99.90
2023-04-19T02:59:08.301Z,99.90
2023-04-19T03:02:11.201Z,99.90
2023-04-19T03:05:15.973Z,99.90
2023-04-19T03:08:17.962Z,99.90
2023-04-19T03:11:21.116Z,99.90
2023-04-19T03:14:23.022Z,99.90
2023-04-19T03:17:25.918Z,99.90
2023-04-19T03:20:28.816Z,99.90
2023-04-19T03:23:32.110Z,99.90
2023-04-19T03:26:36.580Z,99.90
2023-04-19T03:29:39.262Z,99.90
2023-04-19T03:32:44.666Z,99.90
2023-04-19T03:35:48.008Z,99.90
2023-04-19T03:38:50.956Z,99.90
2023-04-19T03:41:54.696Z,99.90
2023-04-19T03:45:08.219Z,99.90
2023-04-19T03:48:15.310Z,99.90
2023-04-19T03:54:50.370Z,99.90
2023-04-19T03:58:15.325Z,99.90
2023-04-19T04:08:17.526Z,99.90
2023-04-19T04:11:19.403Z,99.90
2023-04-19T04:14:24.734Z,99.90
2023-04-19T04:20:53.099Z,99.90
2023-04-19T04:27:30.331Z,99.90
2023-04-19T04:30:34.318Z,99.90
2023-04-19T04:33:44.293Z,99.90
2023-04-19T04:36:49.576Z,99.90
2023-04-19T04:39:53.120Z,99.90
2023-04-19T04:43:01.669Z,99.90
2023-04-19T04:46:04.797Z,99.90
2023-04-19T04:49:18.314Z,99.90
2023-04-19T04:55:44.900Z,99.90
2023-04-19T04:58:49.570Z,99.90
2023-04-19T05:05:20.984Z,99.90
2023-04-19T05:08:25.804Z,99.90
2023-04-19T05:11:43.410Z,99.90
2023-04-19T05:14:45.848Z,99.90
2023-04-19T05:21:10.626Z,99.90
2023-04-19T05:38:12.196Z,99.90
2023-04-19T05:41:16.305Z,99.90
2023-04-19T05:44:25.056Z,99.20
2023-04-19T05:47:30.511Z,99.80
2023-04-19T05:50:55.051Z,99.70
2023-04-19T05:54:20.105Z,98.30
2023-04-19T05:57:30.060Z,98.30
2023-04-19T06:00:37.710Z,98.10
2023-04-19T06:03:47.927Z,98.50
2023-04-19T06:07:01.510Z,98.00
2023-04-19T06:10:04.601Z,97.50
2023-04-19T06:13:08.249Z,97.60
2023-04-19T06:16:10.552Z,98.10
2023-04-19T06:19:16.301Z,96.70
2023-04-19T06:22:22.426Z,97.80
2023-04-19T06:25:49.808Z,96.40
2023-04-19T06:28:53.429Z,96.90
2023-04-19T06:31:57.927Z,95.80
2023-04-19T06:35:05.316Z,96.40
2023-04-19T06:38:12.638Z,95.80
2023-04-19T06:41:20.917Z,97.40
2023-04-19T06:44:26.022Z,95.10
2023-04-19T06:47:30.147Z,96.90
2023-04-19T06:50:36.174Z,97.80
2023-04-19T06:53:39.413Z,96.10
2023-04-19T06:56:45.174Z,96.20
2023-04-19T07:00:12.174Z,96.30
2023-04-19T07:03:14.000Z,96.70
2023-04-19T07:06:15.802Z,95.00
2023-04-19T07:09:17.700Z,96.40
2023-04-19T07:12:19.677Z,96.00
2023-04-19T07:18:44.726Z,96.40
2023-04-19T07:21:46.392Z,95.90
2023-04-19T07:24:48.096Z,95.40
2023-04-19T07:27:49.816Z,95.30
2023-04-19T07:30:51.491Z,95.20
2023-04-19T07:41:18.252Z,93.60
2023-04-19T07:44:19.978Z,93.70
2023-04-19T07:47:21.829Z,93.70
2023-04-19T07:50:26.083Z,92.00
2023-04-19T07:53:27.755Z,93.30
2023-04-19T07:59:58.206Z,91.00
2023-04-19T08:03:05.903Z,90.20
2023-04-19T08:06:17.763Z,88.60
2023-04-19T08:09:21.555Z,90.70
2023-04-19T08:12:35.640Z,90.70
2023-04-19T08:16:18.273Z,90.10
2023-04-19T08:19:00.674Z,90.40
2023-04-19T08:22:07.945Z,91.10
2023-04-19T08:25:11.062Z,91.20
2023-04-19T08:28:13.130Z,86.50
2023-04-19T08:31:15.457Z,88.30
2023-04-19T08:34:25.107Z,90.20
2023-04-19T08:37:33.756Z,91.00
2023-04-19T08:40:36.593Z,91.10
2023-04-19T08:43:41.233Z,89.20
2023-04-19T08:46:48.855Z,89.60
2023-04-19T08:50:07.117Z,89.60
2023-04-19T08:53:26.298Z,90.00
2023-04-19T08:56:35.429Z,88.20
2023-04-19T08:59:41.249Z,85.40
2023-04-19T09:02:57.679Z,89.10
2023-04-19T09:06:01.728Z,87.60
2023-04-19T09:09:35.551Z,85.20
2023-04-19T09:12:44.526Z,90.00
2023-04-19T09:15:49.499Z,85.50
2023-04-19T09:19:15.343Z,82.90
2023-04-19T09:29:31.077Z,81.10
2023-04-19T09:32:52.644Z,69.90
2023-04-19T09:36:01.205Z,72.80
2023-04-19T09:39:03.476Z,79.80
2023-04-19T09:42:05.451Z,76.80
2023-04-19T09:48:16.448Z,75.10
2023-04-19T09:58:21.111Z,67.80
2023-04-19T10:01:29.724Z,65.10
2023-04-19T10:07:50.006Z,72.20
2023-04-19T10:14:45.082Z,62.10
2023-04-19T10:34:47.522Z,53.60
2023-04-19T10:38:16.698Z,51.50
2023-04-19T10:41:19.674Z,48.30
2023-04-19T10:44:25.926Z,50.10
2023-04-19T10:47:44.967Z,50.00
2023-04-19T10:51:06.112Z,48.40
2023-04-19T10:54:30.023Z,54.70
2023-04-19T10:58:03.302Z,50.90
2023-04-19T11:05:07.256Z,54.70
2023-04-19T11:08:09.578Z,51.60
2023-04-19T11:11:11.760Z,49.60
2023-04-19T11:17:32.501Z,49.60
2023-04-19T11:27:53.508Z,48.20
2023-04-19T11:31:05.144Z,50.70
2023-04-19T11:34:10.039Z,52.10
2023-04-19T11:37:18.092Z,53.80
2023-04-19T11:40:26.542Z,51.20
2023-04-19T11:43:41.609Z,52.40
2023-04-19T11:47:00.774Z,54.50
2023-04-19T11:50:46.616Z,51.30
2023-04-19T11:53:51.815Z,52.90
2023-04-19T11:57:00.570Z,53.10
2023-04-19T12:03:29.565Z,54.30
2023-04-19T12:10:12.366Z,54.60
2023-04-19T12:13:18.741Z,54.50
2023-04-19T12:16:35.401Z,48.60
2023-04-19T12:29:53.700Z,45.70
2023-04-19T12:33:00.731Z,49.30
2023-04-19T12:36:04.646Z,47.20
2023-04-19T13:16:58.177Z,41.80
2023-04-19T13:26:53.723Z,43.30
2023-04-19T13:33:19.025Z,40.60
2023-04-19T13:36:24.762Z,37.70
2023-04-19T13:39:42.304Z,37.40
2023-04-19T13:42:51.526Z,38.50
2023-04-19T13:46:05.326Z,37.40
2023-04-19T13:49:12.888Z,40.20
2023-04-19T13:52:27.441Z,38.30
2023-04-19T13:55:36.534Z,36.70
2023-04-19T13:58:42.433Z,37.00
2023-04-19T14:01:56.237Z,38.00
2023-04-19T14:05:02.827Z,37.80
2023-04-19T14:08:18.671Z,35.50
2023-04-19T14:11:40.089Z,39.10
2023-04-19T14:14:45.835Z,38.50
2023-04-19T14:17:55.558Z,39.80
2023-04-19T14:21:10.486Z,36.10
2023-04-19T14:24:27.134Z,35.30
2023-04-19T14:27:32.722Z,31.10
2023-04-19T14:30:42.790Z,30.80
2023-04-19T14:34:03.561Z,33.10
2023-04-19T14:37:16.503Z,32.80
2023-04-19T14:54:25.644Z,26.20
2023-04-19T14:57:35.033Z,27.50
2023-04-19T15:00:51.313Z,28.00
2023-04-19T15:04:05.750Z,29.60
2023-04-19T15:07:35.676Z,24.30
2023-04-19T15:10:43.439Z,24.00
2023-04-19T15:13:59.813Z,24.30
2023-04-19T15:17:10.069Z,24.80
2023-04-19T15:24:22.714Z,26.50
2023-04-19T15:27:32.888Z,27.30
2023-04-19T15:30:34.794Z,27.50
2023-04-19T15:33:37.624Z,29.20
2023-04-19T15:36:40.822Z,27.30
2023-04-19T15:39:43.636Z,25.70
2023-04-19T15:42:48.615Z,28.10
2023-04-19T15:45:58.082Z,28.10
2023-04-19T15:49:07.644Z,28.20
2023-04-19T15:52:19.803Z,28.00
2023-04-19T15:58:53.727Z,31.30
2023-04-19T16:02:02.026Z,28.20
2023-04-19T16:05:12.096Z,28.40
2023-04-19T16:22:39.940Z,27.60
2023-04-19T16:25:45.187Z,28.00
2023-04-19T16:28:51.869Z,27.80
2023-04-19T16:32:03.015Z,29.00
2023-04-19T16:35:31.242Z,28.90
2023-04-19T16:38:38.143Z,29.40
2023-04-19T16:45:11.846Z,30.70
2023-04-19T16:48:17.382Z,30.80
2023-04-19T16:51:23.407Z,30.00
2023-04-19T16:54:29.197Z,30.40
2023-04-19T16:57:37.237Z,30.80
2023-04-19T17:00:42.852Z,31.20
2023-04-19T17:03:54.542Z,30.60
2023-04-19T17:07:04.972Z,30.10
2023-04-19T17:10:07.888Z,31.80
2023-04-19T17:13:23.724Z,32.80
2023-04-19T17:16:30.684Z,32.10
2023-04-19T17:23:03.799Z,33.60
2023-04-19T17:26:18.505Z,32.20
2023-04-19T17:29:31.904Z,32.20
2023-04-19T17:32:40.245Z,32.20
2023-04-19T17:39:11.272Z,34.80
2023-04-19T17:42:13.131Z,35.20
2023-04-19T17:45:14.950Z,37.20
2023-04-19T17:52:09.024Z,34.90
2023-04-19T17:55:18.711Z,38.00
2023-04-19T18:09:15.670Z,37.30
2023-04-19T18:12:24.258Z,39.60
2023-04-19T18:15:30.478Z,39.80
2023-04-19T18:18:39.463Z,38.90
2023-04-19T18:21:47.289Z,40.70
2023-04-19T18:28:23.700Z,42.40
2023-04-19T18:31:25.773Z,41.90
2023-04-19T18:34:27.651Z,42.50
2023-04-19T18:37:29.783Z,44.10
2023-04-19T18:40:31.838Z,43.60
2023-04-19T18:43:33.542Z,42.90
2023-04-19T18:46:35.308Z,46.60
2023-04-19T18:49:37.175Z,45.00
2023-04-19T18:56:10.886Z,47.00
2023-04-19T18:59:12.705Z,48.00
2023-04-19T19:02:14.450Z,49.00
2023-04-19T19:05:16.536Z,48.50
2023-04-19T19:08:19.015Z,50.30
2023-04-19T19:11:47.092Z,52.90
2023-04-19T19:14:43.094Z,49.20
2023-04-19T19:17:49.453Z,52.00
2023-04-19T19:20:54.301Z,51.90
2023-04-19T19:34:25.974Z,52.00
2023-04-19T19:37:32.269Z,54.80
2023-04-19T19:40:34.652Z,52.90
2023-04-19T19:43:36.408Z,54.10
2023-04-19T19:46:39.368Z,52.20
2023-04-19T19:50:00.492Z,52.60
2023-04-19T19:53:13.199Z,51.40
2023-04-19T20:03:02.704Z,52.70
2023-04-19T20:06:35.831Z,53.90
2023-04-19T20:09:28.697Z,53.20
2023-04-19T20:12:30.744Z,53.60
2023-04-19T20:15:34.131Z,51.20
2023-04-19T20:18:37.839Z,54.10
2023-04-19T20:21:39.809Z,51.50
2023-04-19T20:24:42.443Z,52.00
2023-04-19T20:27:44.312Z,53.50
2023-04-19T20:30:46.120Z,51.50
2023-04-19T20:33:48.027Z,52.50
2023-04-19T20:36:49.883Z,53.50
2023-04-19T20:39:52.145Z,53.20
2023-04-19T20:42:53.985Z,52.00
2023-04-19T20:45:55.857Z,51.60
2023-04-19T20:48:57.660Z,52.40
2023-04-19T20:51:59.517Z,54.40
2023-04-19T20:55:01.337Z,51.20
2023-04-19T20:58:03.457Z,51.50
2023-04-19T21:01:05.422Z,51.40
2023-04-19T21:04:08.721Z,52.80
2023-04-19T21:07:10.852Z,52.30
2023-04-19T21:10:13.727Z,50.90
2023-04-19T21:13:15.768Z,50.30
2023-04-19T21:16:17.655Z,50.50
2023-04-19T21:19:19.599Z,52.20
2023-04-19T21:22:21.504Z,50.90
2023-04-19T21:25:23.480Z,52.10
2023-04-19T21:28:25.355Z,49.40
2023-04-19T21:31:27.226Z,50.40
2023-04-19T21:34:29.069Z,51.50
2023-04-19T21:37:31.118Z,50.90
2023-04-19T21:40:32.935Z,50.70
2023-04-19T21:43:34.781Z,49.50
2023-04-19T21:46:36.755Z,50.20
2023-04-19T21:49:38.922Z,48.90
2023-04-19T21:52:41.191Z,51.10
2023-04-19T21:55:43.024Z,50.50
2023-04-19T21:58:45.079Z,51.50
2023-04-19T22:01:47.021Z,50.40
2023-04-19T22:04:49.915Z,50.60
2023-04-19T22:07:51.759Z,50.50
2023-04-19T22:10:53.628Z,49.90
2023-04-19T22:13:55.664Z,49.80
2023-04-19T22:16:59.775Z,51.00
2023-04-19T22:20:01.613Z,51.70
2023-04-19T22:23:03.465Z,51.30
2023-04-19T22:26:05.614Z,51.20
2023-04-19T22:29:07.517Z,52.60
2023-04-19T22:32:09.484Z,52.60
2023-04-19T22:35:11.329Z,53.50
2023-04-19T22:38:13.226Z,54.10
2023-04-19T22:41:15.997Z,53.10
2023-04-19T22:44:17.841Z,51.10
2023-04-19T22:47:19.720Z,54.60
2023-04-19T22:50:23.557Z,53.40
2023-04-19T22:53:25.630Z,53.80
2023-04-19T22:56:27.716Z,52.00
2023-04-19T22:59:29.601Z,54.00
2023-04-19T23:02:31.622Z,52.80
2023-04-19T23:05:33.657Z,54.40
2023-04-19T23:08:35.586Z,55.90
2023-04-19T23:11:37.683Z,55.50
2023-04-19T23:14:39.557Z,55.60
2023-04-19T23:17:41.502Z,55.60
2023-04-19T23:20:43.449Z,55.20
2023-04-19T23:23:45.529Z,56.10
2023-04-19T23:26:47.370Z,57.10
2023-04-19T23:29:49.277Z,58.20
2023-04-19T23:32:51.153Z,57.70
2023-04-19T23:35:53.041Z,57.20
2023-04-19T23:38:54.841Z,58.40
2023-04-19T23:41:56.644Z,56.40
2023-04-19T23:44:58.515Z,59.20
2023-04-19T23:48:00.523Z,57.40
2023-04-19T23:51:02.359Z,55.80
2023-04-19T23:54:04.199Z,55.40
2023-04-19T23:57:06.432Z,57.10
